Time;durP1;ratioP1;P1;durP2;ratioP2;P2;SDS_P1;SDS_P2;PMS_P1;PMS_P2;Temp;Humidity;BMP_temperature;BMP_pressure;BME280_temperature;BME280_humidity;BME280_pressure;Samples;Min_cycle;Max_cycle;Signal;HPM_P1;HPM_P2
2023/04/19 00:01:37;;;;;;;40.72;26.60;;;8.40;99.90;;;7.61;100.00;101478.75;4136488;28;20634;-78
2023/04/19 00:03:38;;;;;;;40.10;25.90;;;8.40;99.90;;;7.58;100.00;101464.06;4133121;28;20034;-79
2023/04/19 00:05:39;;;;;;;38.13;24.83;;;8.30;99.90;;;7.56;100.00;101468.59;4135082;28;20026;-79
2023/04/19 00:07:40;;;;;;;37.47;25.05;;;8.30;99.90;;;7.51;100.00;101473.38;4125520;28;20057;-78
2023/04/19 00:09:41;;;;;;;29.88;22.17;;;8.30;99.90;;;7.44;100.00;101466.06;4128763;28;20022;-79
2023/04/19 00:11:42;;;;;;;38.28;25.70;;;8.20;99.90;;;7.45;100.00;101468.59;4137160;28;20097;-79
2023/04/19 00:13:43;;;;;;;33.55;23.73;;;8.20;99.90;;;7.42;100.00;101474.06;4137192;28;20023;-79
2023/04/19 00:15:44;;;;;;;39.80;24.95;;;8.20;99.90;;;7.39;100.00;101479.56;4132002;28;20023;-78
2023/04/19 00:17:45;;;;;;;38.60;25.67;;;8.10;99.90;;;7.36;100.00;101466.66;4120997;28;20023;-79
2023/04/19 00:19:46;;;;;;;35.78;25.13;;;8.10;99.90;;;7.32;100.00;101459.16;4131490;28;20034;-79
2023/04/19 00:21:47;;;;;;;37.00;24.45;;;8.10;99.90;;;7.30;100.00;101467.13;4134482;28;20064;-78
2023/04/19 00:23:48;;;;;;;36.20;25.10;;;8.10;99.90;;;7.28;100.00;101468.22;4124814;28;20110;-79
2023/04/19 00:25:49;;;;;;;34.45;25.73;;;8.10;99.90;;;7.25;100.00;101469.28;4135823;28;20026;-79
2023/04/19 00:27:50;;;;;;;38.63;26.15;;;8.00;99.90;;;7.24;100.00;101472.84;4135759;28;20038;-79
2023/04/19 00:29:51;;;;;;;40.65;26.65;;;8.00;99.90;;;7.19;100.00;101470.59;4137088;28;20054;-78
2023/04/19 00:31:52;;;;;;;37.30;25.17;;;7.90;99.90;;;7.18;100.00;101468.91;4135803;28;20037;-79
2023/04/19 00:33:52;;;;;;;37.63;25.40;;;7.90;99.90;;;7.16;100.00;101462.94;4128565;28;20027;-79
2023/04/19 00:35:53;;;;;;;39.17;26.33;;;7.90;99.90;;;7.17;100.00;101466.38;4135617;28;20030;-78
2023/04/19 00:37:54;;;;;;;37.95;24.02;;;7.90;99.90;;;7.16;100.00;101464.72;4136792;28;20030;-78
2023/04/19 00:39:55;;;;;;;34.88;24.70;;;7.90;99.90;;;7.12;100.00;101458.03;4135678;28;20409;-78
2023/04/19 00:41:56;;;;;;;36.55;25.17;;;7.90;99.90;;;7.10;100.00;101452.06;4135705;28;20022;-79
2023/04/19 00:43:57;;;;;;;38.40;25.13;;;7.80;99.90;;;7.07;100.00;101454.94;4135622;28;20054;-78
2023/04/19 00:45:58;;;;;;;35.95;24.63;;;7.80;99.90;;;7.05;100.00;101454.19;4123000;28;20034;-79
2023/04/19 00:48:00;;;;;;;38.22;26.20;;;7.80;99.90;;;7.02;100.00;101452.66;4123383;28;20052;-79
2023/04/19 00:50:03;;;;;;;39.55;26.10;;;7.80;99.90;;;7.03;100.00;101461.34;4127108;28;20037;-79
2023/04/19 00:52:05;;;;;;;42.25;26.80;;;7.80;99.90;;;6.99;100.00;101444.19;4136706;28;20101;-79
2023/04/19 00:54:07;;;;;;;34.85;24.05;;;7.70;99.90;;;6.95;100.00;101438.34;4136688;28;20022;-79
2023/04/19 00:56:08;;;;;;;42.55;26.75;;;7.70;99.90;;;7.04;100.00;101442.06;4114748;28;20027;-79
2023/04/19 00:58:09;;;;;;;40.50;27.00;;;7.70;99.90;;;7.10;100.00;101442.44;4119421;28;20545;-78
2023/04/19 01:00:11;;;;;;;34.58;23.83;;;7.80;99.90;;;7.16;100.00;101441.13;4131566;28;20030;-79
2023/04/19 01:02:12;;;;;;;38.30;26.05;;;7.80;99.90;;;7.23;100.00;101431.81;4135183;28;20033;-79
2023/04/19 01:04:13;;;;;;;34.25;24.85;;;7.90;99.90;;;7.33;100.00;101432.78;4124606;28;20437;-79
2023/04/19 01:06:14;;;;;;;36.17;25.10;;;8.00;99.90;;;7.40;100.00;101431.38;4128946;28;20039;-79
2023/04/19 01:08:15;;;;;;;38.45;25.67;;;8.10;99.90;;;7.46;100.00;101438.78;4130041;28;20429;-79
2023/04/19 01:10:16;;;;;;;39.80;25.77;;;8.20;99.90;;;7.52;100.00;101432.19;4134118;28;20080;-79
2023/04/19 01:12:17;;;;;;;37.08;25.00;;;8.20;99.90;;;7.55;100.00;101426.72;4135376;28;20109;-79
2023/04/19 01:14:18;;;;;;;31.48;21.63;;;8.30;99.90;;;7.55;100.00;101427.56;4126462;28;20045;-79
2023/04/19 01:16:19;;;;;;;33.25;23.23;;;8.30;99.90;;;7.56;100.00;101426.56;4125070;28;20108;-79
2023/04/19 01:18:23;;;;;;;34.85;24.08;;;8.30;99.90;;;7.48;100.00;101420.25;4120013;28;20038;-79
2023/04/19 01:20:24;;;;;;;32.10;23.45;;;8.30;99.90;;;7.47;100.00;101421.19;4122954;28;20022;-79
2023/04/19 01:22:25;;;;;;;34.97;24.10;;;8.30;99.90;;;7.37;100.00;101415.84;4126029;28;20510;-79
2023/04/19 01:24:25;;;;;;;39.25;25.25;;;8.20;99.90;;;7.33;100.00;101408.31;4128854;28;20034;-79
2023/04/19 01:26:26;;;;;;;32.53;24.63;;;8.20;99.90;;;7.34;100.00;101415.25;4121726;28;20479;-79
2023/04/19 01:28:27;;;;;;;34.42;24.88;;;8.10;99.90;;;7.28;100.00;101406.06;4122260;28;20030;-79
2023/04/19 01:30:28;;;;;;;38.40;25.35;;;8.10;99.90;;;7.23;100.00;101402.94;4135123;28;20371;-78
2023/04/19 01:32:29;;;;;;;38.65;26.55;;;8.00;99.90;;;7.20;100.00;101401.41;4129590;28;20077;-79
2023/04/19 01:34:30;;;;;;;34.05;25.27;;;8.00;99.90;;;7.19;100.00;101406.78;4136094;28;20034;-79
2023/04/19 01:36:31;;;;;;;34.85;25.08;;;8.00;99.90;;;7.19;100.00;101398.91;4134406;28;20022;-79
2023/04/19 01:38:32;;;;;;;37.08;26.23;;;8.00;99.90;;;7.19;100.00;101406.78;4126251;28;20031;-79
2023/04/19 01:40:33;;;;;;;44.33;27.85;;;8.00;99.90;;;7.22;100.00;101401.28;4136175;28;20035;-79
2023/04/19 01:42:34;;;;;;;37.08;25.85;;;8.00;99.90;;;7.23;100.00;101400.31;4134831;28;20042;-79
2023/04/19 01:44:35;;;;;;;40.72;26.15;;;8.00;99.90;;;7.27;100.00;101404.38;4118428;28;20038;-79
2023/04/19 01:46:37;;;;;;;42.90;28.92;;;8.00;99.90;;;7.31;100.00;101403.22;4124511;28;20034;-79
2023/04/19 01:48:38;;;;;;;42.58;27.25;;;8.10;99.90;;;7.32;100.00;101390.94;4136028;28;20026;-78
2023/04/19 01:50:39;;;;;;;34.70;25.63;;;8.10;99.90;;;7.30;100.00;101393.66;4134384;28;20053;-79
2023/04/19 01:52:40;;;;;;;39.00;27.05;;;8.10;99.90;;;7.33;100.00;101388.16;4134736;28;20506;-79
2023/04/19 01:54:41;;;;;;;39.35;25.23;;;8.10;99.90;;;7.33;100.00;101388.16;4125555;28;20026;-78
2023/04/19 01:56:42;;;;;;;37.13;27.10;;;8.20;99.90;;;7.30;100.00;101385.78;4127174;28;20030;-79
2023/04/19 01:58:42;;;;;;;33.65;24.50;;;8.10;99.90;;;7.28;100.00;101386.88;4119901;28;20077;-79
2023/04/19 02:00:43;;;;;;;35.88;25.13;;;8.10;99.90;;;7.24;100.00;101391.50;4119797;28;20026;-79
2023/04/19 02:02:44;;;;;;;35.72;24.83;;;8.10;99.90;;;7.17;100.00;101379.81;4118529;28;20038;-79
2023/04/19 02:04:45;;;;;;;37.88;25.92;;;8.00;99.90;;;7.15;100.00;101381.72;4118741;28;20044;-78
2023/04/19 02:06:46;;;;;;;33.47;23.15;;;8.00;99.90;;;7.10;100.00;101384.72;4119845;28;20030;-79
2023/04/19 02:08:47;;;;;;;42.95;27.52;;;7.90;99.90;;;7.07;100.00;101387.56;4125694;28;20023;-79
2023/04/19 02:10:47;;;;;;;39.63;25.65;;;7.90;99.90;;;7.02;100.00;101387.06;4135972;28;20022;-77
2023/04/19 02:12:48;;;;;;;36.80;25.20;;;7.90;99.90;;;7.00;100.00;101390.75;4135894;28;20033;-79
2023/04/19 02:14:49;;;;;;;39.50;25.58;;;7.80;99.90;;;6.96;100.00;101384.91;4134666;28;20545;-78
2023/04/19 02:16:50;;;;;;;39.15;27.35;;;7.80;99.90;;;6.94;100.00;101389.44;4135825;28;20030;-78
2023/04/19 02:18:52;;;;;;;40.10;27.08;;;7.70;99.90;;;6.90;100.00;101379.31;4134572;28;20044;-79
2023/04/19 02:20:52;;;;;;;40.97;28.30;;;7.70;99.90;;;6.89;100.00;101375.03;4127898;28;20030;-78
2023/04/19 02:22:53;;;;;;;40.92;27.23;;;7.70;99.90;;;6.87;100.00;101379.56;4136001;28;20038;-79
2023/04/19 02:24:54;;;;;;;40.97;28.40;;;7.60;99.90;;;6.81;100.00;101372.16;4134406;28;20034;-78
2023/04/19 02:26:55;;;;;;;42.80;28.65;;;7.60;99.90;;;6.78;100.00;101373.19;4135933;28;20035;-79
2023/04/19 02:28:56;;;;;;;45.17;27.40;;;7.60;99.90;;;6.81;100.00;101386.06;4134686;28;20026;-79
2023/04/19 02:30:58;;;;;;;41.75;27.50;;;7.60;99.90;;;6.77;100.00;101386.44;4130099;28;20034;-79
2023/04/19 02:32:58;;;;;;;42.08;27.42;;;7.50;99.90;;;6.74;100.00;101378.81;4134253;28;20065;-79
2023/04/19 02:34:59;;;;;;;45.72;30.65;;;7.50;99.90;;;6.77;100.00;101378.56;4124120;28;20022;-78
2023/04/19 02:37:01;;;;;;;38.80;27.45;;;7.50;99.90;;;6.75;100.00;101378.66;4153720;28;20025;-78
2023/04/19 02:39:02;;;;;;;48.03;30.75;;;7.50;99.90;;;6.75;100.00;101378.66;4138816;28;20094;-79
2023/04/19 02:41:04;;;;;;;41.67;29.13;;;7.50;99.90;;;6.73;100.00;101372.72;4138679;28;20026;-79
2023/04/19 02:43:05;;;;;;;44.63;29.70;;;7.50;99.90;;;6.73;100.00;101371.88;4137479;28;20487;-79
2023/04/19 02:45:07;;;;;;;46.00;29.52;;;7.50;99.90;;;6.72;100.00;101373.66;4137348;28;20039;-79
2023/04/19 02:47:08;;;;;;;46.88;30.90;;;7.50;99.90;;;6.73;100.00;101374.50;4132321;28;20030;-79
2023/04/19 02:49:09;;;;;;;45.00;30.83;;;7.50;99.90;;;6.77;100.00;101370.72;4125788;28;20037;-78
2023/04/19 02:51:16;;;;;;;44.38;29.88;;;7.50;99.90;;;6.77;100.00;101368.94;4122315;28;20095;-79
2023/04/19 02:53:17;;;;;;;43.38;30.77;;;7.50;99.90;;;6.79;100.00;101374.03;4128508;28;20077;-79
2023/04/19 02:55:18;;;;;;;44.65;28.75;;;7.50;99.90;;;6.78;100.00;101372.38;4132932;28;20070;-78
2023/04/19 02:57:19;;;;;;;41.08;30.23;;;7.50;99.90;;;6.75;100.00;101370.81;4138447;28;20041;-79
2023/04/19 02:59:20;;;;;;;41.85;27.70;;;7.50;99.90;;;6.69;100.00;101371.28;4138580;28;20042;-78
2023/04/19 03:01:20;;;;;;;47.53;29.90;;;7.50;99.90;;;6.68;100.00;101362.59;4137273;28;20031;-78
2023/04/19 03:03:21;;;;;;;46.05;31.60;;;7.50;99.90;;;6.69;100.00;101364.25;4130593;28;20133;-79
2023/04/19 03:05:22;;;;;;;47.70;29.33;;;7.50;99.90;;;6.69;100.00;101369.50;4134897;28;20085;-79
2023/04/19 03:07:24;;;;;;;47.92;29.50;;;7.50;99.90;;;6.66;100.00;101367.09;4138318;28;20050;-79
2023/04/19 03:09:25;;;;;;;50.30;30.98;;;7.50;99.90;;;6.64;100.00;101362.94;4137284;28;20018;-79
2023/04/19 03:11:25;;;;;;;44.67;30.13;;;7.40;99.90;;;6.65;100.00;101362.81;4129963;28;20045;-78
2023/04/19 03:13:26;;;;;;;40.70;27.90;;;7.50;99.90;;;6.62;100.00;101373.53;4134249;28;20049;-79
2023/04/19 03:15:27;;;;;;;44.15;28.23;;;7.40;99.90;;;6.58;100.00;101371.25;4138099;28;20075;-79
2023/04/19 03:17:28;;;;;;;41.70;29.20;;;7.40;99.90;;;6.54;100.00;101375.06;4136829;28;20030;-79
2023/04/19 03:19:29;;;;;;;42.58;29.00;;;7.30;99.90;;;6.48;100.00;101365.84;4138168;28;20030;-79
2023/04/19 03:21:30;;;;;;;44.60;30.25;;;7.30;99.90;;;6.45;100.00;101370.50;4136947;28;20040;-79
2023/04/19 03:23:30;;;;;;;37.95;28.40;;;7.30;99.90;;;6.45;100.00;101370.50;4136661;28;20406;-79
2023/04/19 03:25:32;;;;;;;45.40;30.80;;;7.20;99.90;;;6.44;100.00;101374.91;4138479;28;20029;-79
2023/04/19 03:27:35;;;;;;;45.67;30.75;;;7.20;99.90;;;6.46;100.00;101372.16;4130162;28;20094;-79
2023/04/19 03:29:36;;;;;;;41.55;29.50;;;7.20;99.90;;;6.39;100.00;101363.91;4121983;28;20490;-79
2023/04/19 03:31:37;;;;;;;46.78;28.83;;;7.20;99.90;;;6.36;100.00;101361.53;4135144;28;20034;-78
2023/04/19 03:33:38;;;;;;;44.67;32.42;;;7.20;99.90;;;6.42;100.00;101363.69;4125440;28;20426;-79
2023/04/19 03:35:39;;;;;;;55.47;33.03;;;7.20;99.90;;;6.40;100.00;101360.34;4130691;28;20030;-79
2023/04/19 03:37:39;;;;;;;48.65;29.65;;;7.20;99.90;;;6.45;100.00;101373.13;4136663;28;20023;-79
2023/04/19 03:39:40;;;;;;;47.58;31.23;;;7.20;99.90;;;6.44;100.00;101361.81;4137690;28;20034;-79
2023/04/19 03:41:41;;;;;;;46.25;31.58;;;7.20;99.90;;;6.47;100.00;101369.44;4136549;28;20038;-79
2023/04/19 03:43:42;;;;;;;45.20;31.05;;;7.20;99.90;;;6.47;100.00;101369.44;4129089;28;20035;-79
2023/04/19 03:45:43;;;;;;;45.70;31.92;;;7.20;99.90;;;6.44;100.00;101359.19;4121262;28;20037;-78
2023/04/19 03:47:45;;;;;;;51.17;32.90;;;7.20;99.90;;;6.44;100.00;101359.19;4135169;28;20046;-79
2023/04/19 03:49:46;;;;;;;45.55;32.10;;;7.20;99.90;;;6.41;100.00;101359.41;4127023;28;20405;-79
2023/04/19 03:51:46;;;;;;;49.72;32.92;;;7.20;99.90;;;6.42;100.00;101366.31;4136612;28;20033;-79
2023/04/19 03:53:47;;;;;;;44.63;30.10;;;7.20;99.90;;;6.39;100.00;101363.91;4131874;28;20022;-78
2023/04/19 03:55:48;;;;;;;48.28;32.45;;;7.20;99.90;;;6.39;100.00;101370.97;4134870;28;20568;-79
2023/04/19 03:57:49;;;;;;;48.92;31.67;;;7.20;99.90;;;6.34;100.00;101371.28;4136297;28;20037;-79
2023/04/19 03:59:50;;;;;;;48.08;33.05;;;7.20;99.90;;;6.34;100.00;101365.22;4137626;28;20030;-78
2023/04/19 04:01:51;;;;;;;49.28;33.30;;;7.10;99.90;;;6.32;100.00;101367.97;4137375;28;20037;-79
2023/04/19 04:03:52;;;;;;;45.10;33.40;;;7.10;99.90;;;6.33;100.00;101374.84;4136300;28;20505;-79
2023/04/19 04:05:52;;;;;;;44.72;30.73;;;7.10;99.90;;;6.27;100.00;101362.25;4121722;28;20038;-79
2023/04/19 04:07:53;;;;;;;46.58;31.23;;;7.10;99.90;;;6.26;100.00;101372.81;4127530;28;20027;-79
2023/04/19 04:09:54;;;;;;;47.22;31.40;;;7.10;99.90;;;6.22;100.00;101366.97;4132132;28;20034;-79
2023/04/19 04:11:55;;;;;;;51.85;33.42;;;7.00;99.90;;;6.22;100.00;101366.97;4136074;28;20029;-79
2023/04/19 04:13:56;;;;;;;49.20;33.97;;;7.00;99.90;;;6.22;100.00;101366.97;4124498;28;20038;-79
2023/04/19 04:15:57;;;;;;;45.63;32.10;;;7.00;99.90;;;6.23;100.00;101366.03;4127217;28;20057;-79
2023/04/19 04:17:58;;;;;;;52.90;32.20;;;7.00;99.90;;;6.15;100.00;101355.28;4137072;28;20071;-79
2023/04/19 04:19:58;;;;;;;43.15;31.35;;;7.00;99.90;;;6.15;100.00;101364.91;4135881;28;20042;-79
2023/04/19 04:21:59;;;;;;;48.75;32.58;;;6.90;99.90;;;6.13;100.00;101365.84;4124808;28;20490;-79
2023/04/19 04:24:03;;;;;;;45.42;31.08;;;6.90;99.90;;;6.12;100.00;101363.38;4137195;28;20414;-79
2023/04/19 04:26:05;;;;;;;48.20;33.47;;;6.90;99.90;;;6.08;100.00;101362.75;4137100;28;20048;-79
2023/04/19 04:28:05;;;;;;;44.95;29.33;;;6.90;99.90;;;6.05;100.00;101364.75;4136876;28;20035;-79
2023/04/19 04:30:08;;;;;;;49.47;31.48;;;6.80;99.90;;;6.02;100.00;101352.72;4135913;28;20065;-79
2023/04/19 04:32:13;;;;;;;48.63;31.65;;;6.80;99.90;;;6.03;100.00;101361.41;4135635;28;20038;-79
2023/04/19 04:34:13;;;;;;;45.78;31.00;;;6.80;99.90;;;6.02;100.00;101362.34;4136035;28;20027;-79
2023/04/19 04:36:14;;;;;;;50.97;32.50;;;6.80;99.90;;;6.00;100.00;101357.22;4135566;28;20022;-78
2023/04/19 04:38:16;;;;;;;47.58;31.25;;;6.80;99.90;;;6.00;100.00;101359.00;4123398;28;20033;-79
2023/04/19 04:40:17;;;;;;;49.67;31.67;;;6.80;99.90;;;5.99;100.00;101357.34;4127970;28;20022;-79
2023/04/19 04:42:20;;;;;;;48.95;33.67;;;6.80;99.90;;;5.99;100.00;101359.94;4131476;28;20036;-78
2023/04/19 04:44:21;;;;;;;47.65;31.95;;;6.80;99.90;;;6.01;100.00;101371.13;4133075;28;20049;-79
2023/04/19 04:46:22;;;;;;;49.53;33.40;;;6.80;99.90;;;5.98;100.00;101366.13;4136766;28;20030;-79
2023/04/19 04:48:23;;;;;;;48.35;33.00;;;6.70;99.90;;;5.98;100.00;101366.13;4136643;28;20026;-79
2023/04/19 04:50:24;;;;;;;49.70;32.55;;;6.80;99.90;;;5.98;100.00;101366.13;4135509;28;20020;-79
2023/04/19 04:52:25;;;;;;;51.05;31.58;;;6.70;99.90;;;5.95;100.00;101368.97;4134006;28;20406;-79
2023/04/19 04:54:26;;;;;;;51.08;34.42;;;6.70;99.90;;;5.96;100.00;101373.28;4135495;28;20022;-79
2023/04/19 04:56:27;;;;;;;50.88;32.38;;;6.70;99.90;;;5.91;100.00;101362.31;4136441;28;20030;-79
2023/04/19 04:58:28;;;;;;;49.05;33.22;;;6.70;99.90;;;5.87;100.00;101366.06;4134624;28;20029;-79
2023/04/19 05:00:28;;;;;;;56.20;33.22;;;6.70;99.90;;;5.86;100.00;101372.25;4132599;28;20100;-78
2023/04/19 05:02:29;;;;;;;56.20;33.75;;;6.60;99.90;;;5.87;100.00;101381.78;4122675;28;20022;-79
2023/04/19 05:04:30;;;;;;;54.88;34.83;;;6.60;99.90;;;5.95;100.00;101382.06;4136510;28;20034;-79
2023/04/19 05:06:31;;;;;;;50.55;32.35;;;6.70;99.90;;;5.88;100.00;101370.38;4126465;28;20035;-79
2023/04/19 05:08:32;;;;;;;53.90;33.20;;;6.70;99.90;;;5.91;100.00;101376.19;4132188;28;20030;-78
2023/04/19 05:10:33;;;;;;;50.70;33.17;;;6.70;99.90;;;5.95;100.00;101382.91;4135242;28;20029;-80
2023/04/19 05:12:35;;;;;;;51.13;34.70;;;6.70;99.90;;;5.96;100.00;101384.59;4136547;28;20037;-78
2023/04/19 05:14:36;;;;;;;46.47;32.33;;;6.70;99.90;;;5.91;100.00;101381.44;4135165;28;20207;-78
2023/04/19 05:16:37;;;;;;;50.85;32.28;;;6.70;99.90;;;5.93;100.00;101386.56;4131796;28;20038;-78
2023/04/19 05:18:38;;;;;;;47.28;31.17;;;6.70;99.90;;;5.83;100.00;101380.28;4136142;28;20057;-78
2023/04/19 05:20:39;;;;;;;49.63;32.83;;;6.70;99.90;;;5.92;100.00;101388.34;4135289;28;20524;-79
2023/04/19 05:22:40;;;;;;;50.92;33.28;;;6.70;99.90;;;5.93;100.00;101389.19;4127038;28;20023;-79
2023/04/19 05:24:41;;;;;;;54.50;33.63;;;6.70;99.90;;;5.94;100.00;101396.13;4134951;28;20521;-79
2023/04/19 05:26:42;;;;;;;52.22;32.97;;;6.70;99.90;;;5.92;100.00;101387.50;4120101;28;20499;-79
2023/04/19 05:28:44;;;;;;;48.28;31.70;;;6.70;99.90;;;5.91;100.00;101386.66;4118937;28;20042;-79
2023/04/19 05:30:45;;;;;;;54.03;32.22;;;6.70;99.90;;;5.94;100.00;101390.88;4103315;28;20031;-79
2023/04/19 05:32:46;;;;;;;52.72;33.80;;;6.70;99.90;;;5.88;100.00;101375.63;4134594;28;20034;-79
2023/04/19 05:34:47;;;;;;;51.63;33.28;;;6.70;99.90;;;5.96;100.00;101383.75;4134668;28;20030;-79
2023/04/19 05:36:48;;;;;;;50.33;33.50;;;6.70;99.90;;;6.00;100.00;101385.19;4146107;28;20402;-78
2023/04/19 05:38:49;;;;;;;49.20;34.03;;;6.80;99.90;;;6.03;100.00;101391.03;4134975;28;20026;-79
2023/04/19 05:40:50;;;;;;;59.47;35.45;;;6.80;99.90;;;6.05;100.00;101383.06;4151103;28;20030;-79
2023/04/19 05:42:50;;;;;;;57.75;35.22;;;6.80;99.90;;;6.10;100.00;101388.81;4131341;28;20049;-78
2023/04/19 05:44:51;;;;;;;51.90;32.20;;;6.80;99.90;;;6.16;100.00;101384.91;4118678;28;20054;-78
2023/04/19 05:46:52;;;;;;;47.80;31.02;;;6.90;99.90;;;6.14;100.00;101387.66;4119914;28;20432;-78
2023/04/19 05:48:53;;;;;;;56.90;34.88;;;6.90;99.90;;;6.15;100.00;101384.09;4129583;28;20026;-78
2023/04/19 05:50:56;;;;;;;50.90;33.35;;;6.90;99.90;;;6.16;100.00;101384.91;4121589;28;20026;-77
2023/04/19 05:52:57;;;;;;;58.40;36.67;;;6.90;99.90;;;6.22;100.00;101387.06;4123390;28;20022;-78
2023/04/19 05:54:58;;;;;;;55.50;33.45;;;6.90;99.90;;;6.25;100.00;101387.69;4128091;28;20274;-77
2023/04/19 05:57:00;;;;;;;55.08;34.13;;;7.00;99.90;;;6.30;100.00;101385.56;4119859;28;20031;-77
2023/04/19 05:59:01;;;;;;;55.50;35.13;;;7.00;99.90;;;6.32;100.00;101388.91;4119837;28;20027;-77
2023/04/19 06:01:03;;;;;;;60.00;35.88;;;7.10;99.90;;;6.33;100.00;101393.19;4123264;28;20038;-76
2023/04/19 06:03:04;;;;;;;52.55;34.25;;;7.10;99.90;;;6.39;100.00;101394.56;4126620;28;20022;-76
2023/04/19 06:05:05;;;;;;;53.28;34.67;;;7.10;99.90;;;6.41;100.00;101385.63;4138883;28;20030;-77
2023/04/19 06:07:07;;;;;;;54.05;34.75;;;7.20;99.90;;;6.46;100.00;101385.25;4134364;28;20038;-77
2023/04/19 06:09:08;;;;;;;57.95;34.80;;;7.20;99.90;;;6.53;100.00;101389.97;4119303;28;20027;-77
2023/04/19 06:11:09;;;;;;;49.42;34.38;;;7.20;99.90;;;6.58;100.00;101394.84;4130702;28;20037;-77
2023/04/19 06:13:09;;;;;;;51.65;34.45;;;7.30;99.90;;;6.61;100.00;101387.59;4137956;28;20486;-78
2023/04/19 06:15:11;;;;;;;55.13;34.47;;;7.30;99.90;;;6.64;100.00;101387.34;4124060;28;20030;-78
2023/04/19 06:17:13;;;;;;;54.15;35.00;;;7.30;99.90;;;6.69;100.00;101389.63;4126859;28;20026;-79
2023/04/19 06:19:14;;;;;;;53.00;33.55;;;7.40;99.90;;;6.75;100.00;101390.97;4139114;28;20625;-82
2023/04/19 06:21:15;;;;;;;54.47;32.53;;;7.50;99.90;;;6.80;100.00;101389.66;4137935;28;20027;-84
2023/04/19 06:23:17;;;;;;;51.88;33.03;;;7.50;99.90;;;6.87;100.00;101383.00;4135383;28;20037;-82
2023/04/19 06:25:18;;;;;;;54.33;34.53;;;7.50;99.90;;;6.91;100.00;101371.31;4122948;28;20054;-84
2023/04/19 06:27:19;;;;;;;48.05;34.45;;;7.60;99.90;;;6.91;100.00;101373.94;4129041;28;20022;-79
2023/04/19 06:29:20;;;;;;;50.08;33.95;;;7.60;99.90;;;6.99;100.00;101368.94;4115947;28;20491;-80
2023/04/19 06:31:21;;;;;;;56.00;34.20;;;7.70;99.90;;;7.04;100.00;101365.97;4137657;28;20033;-79
2023/04/19 06:33:22;;;;;;;52.47;35.05;;;7.70;99.90;;;7.10;100.00;101376.00;4137479;28;20026;-78
2023/04/19 06:35:24;;;;;;;47.65;34.97;;;7.80;99.90;;;7.18;100.00;101368.38;4138789;28;20486;-79
2023/04/19 06:37:25;;;;;;;55.33;33.10;;;7.80;99.90;;;7.17;100.00;101361.44;4137643;28;20035;-77
2023/04/19 06:39:26;;;;;;;51.30;33.85;;;7.90;99.90;;;7.20;100.00;101361.19;4138811;28;20057;-80
2023/04/19 06:41:27;;;;;;;46.75;33.28;;;7.90;99.90;;;7.26;100.00;101360.72;4137621;28;20053;-78
2023/04/19 06:43:28;;;;;;;44.70;31.52;;;7.90;99.90;;;7.30;100.00;101353.44;4136479;28;20057;-77
2023/04/19 06:45:29;;;;;;;46.85;32.97;;;8.00;99.90;;;7.36;100.00;101358.22;4137528;28;20027;-78
2023/04/19 06:47:30;;;;;;;47.05;33.95;;;8.10;99.90;;;7.38;100.00;101353.72;4138475;28;20033;-76
2023/04/19 06:49:31;;;;;;;49.58;34.13;;;8.10;99.90;;;7.44;100.00;101355.81;4137476;28;20564;-76
2023/04/19 06:51:32;;;;;;;48.72;32.33;;;8.20;99.90;;;7.49;100.00;101351.06;4128379;28;20041;-76
2023/04/19 06:53:34;;;;;;;43.60;30.85;;;8.20;99.90;;;7.58;100.00;101359.06;4137361;28;20029;-77
2023/04/19 06:55:35;;;;;;;46.45;32.67;;;8.30;99.90;;;7.57;100.00;101349.50;4126171;28;20027;-80
2023/04/19 06:57:36;;;;;;;47.03;32.47;;;8.30;99.90;;;7.65;100.00;101354.13;4136429;28;20034;-80
2023/04/19 06:59:38;;;;;;;48.65;30.55;;;8.40;99.90;;;7.70;100.00;101352.81;4128117;28;20402;-81
2023/04/19 07:01:40;;;;;;;48.53;31.85;;;8.40;99.90;;;7.80;100.00;101353.75;4137103;28;20026;-81
2023/04/19 07:03:40;;;;;;;44.80;30.55;;;8.50;99.90;;;7.87;100.00;101354.09;4116862;28;20031;-80
2023/04/19 07:05:41;;;;;;;44.70;29.65;;;8.60;99.90;;;7.92;100.00;101345.81;4136942;28;20089;-80
2023/04/19 07:07:42;;;;;;;38.40;28.60;;;8.60;99.90;;;8.03;100.00;101353.69;4126530;28;20034;-80
2023/04/19 07:09:43;;;;;;;41.78;30.73;;;8.70;99.90;;;8.09;100.00;101353.19;4137116;28;20438;-80
2023/04/19 07:11:46;;;;;;;44.33;29.77;;;8.80;99.90;;;8.16;100.00;101349.06;4124977;28;20034;-80
2023/04/19 07:13:47;;;;;;;40.83;28.65;;;8.80;99.90;;;8.22;100.00;101348.56;4129949;28;20490;-80
2023/04/19 07:15:48;;;;;;;42.35;30.02;;;8.90;99.90;;;8.29;100.00;101349.78;4138267;28;20033;-79
2023/04/19 07:17:49;;;;;;;42.17;29.73;;;9.00;99.90;;;8.29;100.00;101341.91;4137685;28;20053;-79
2023/04/19 07:19:49;;;;;;;42.85;29.90;;;9.10;99.90;;;8.44;100.00;101348.53;4138083;28;20033;-78
2023/04/19 07:21:50;;;;;;;35.38;27.10;;;9.10;99.90;;;8.53;100.00;101346.91;4136556;28;20046;-79
2023/04/19 07:23:51;;;;;;;40.03;28.48;;;9.20;99.90;;;8.59;100.00;101347.25;4138172;28;20022;-79
2023/04/19 07:25:52;;;;;;;39.65;27.73;;;9.30;99.90;;;8.72;100.00;101342.59;4136878;28;20506;-79
2023/04/19 07:27:55;;;;;;;35.58;27.23;;;9.40;99.90;;;8.80;100.00;101341.97;4132474;28;20030;-78
2023/04/19 07:29:56;;;;;;;41.40;28.20;;;9.40;99.90;;;8.86;100.00;101344.06;4136727;28;20418;-79
2023/04/19 07:31:58;;;;;;;37.97;26.80;;;9.50;99.90;;;8.94;100.00;101349.50;4136714;28;20030;-79
2023/04/19 07:33:59;;;;;;;38.47;27.30;;;9.60;99.90;;;9.06;100.00;101342.38;4136650;28;20026;-79
2023/04/19 07:36:00;;;;;;;37.55;27.70;;;9.70;99.90;;;9.14;100.00;101338.09;4133697;28;20034;-79
2023/04/19 07:38:01;;;;;;;34.47;25.75;;;9.80;99.90;;;9.24;100.00;101333.72;4136562;28;20030;-79
2023/04/19 07:40:03;;;;;;;36.17;25.67;;;9.90;99.90;;;9.29;100.00;101325.41;4132932;28;20027;-79
2023/04/19 07:42:04;;;;;;;33.90;24.83;;;10.00;99.90;;;9.44;100.00;101339.88;4125890;28;20022;-79
2023/04/19 07:44:05;;;;;;;32.30;24.52;;;10.10;99.90;;;9.51;100.00;101329.66;4137686;28;20410;-79
2023/04/19 07:46:12;;;;;;;33.92;24.17;;;10.10;99.90;;;9.59;100.00;101332.47;4137676;28;20023;-79
2023/04/19 07:48:13;;;;;;;30.27;23.23;;;10.20;99.90;;;9.67;100.00;101336.09;4136328;28;20450;-79
2023/04/19 07:50:13;;;;;;;32.88;24.05;;;10.30;99.90;;;9.73;100.00;101340.81;4130240;28;20035;-79
2023/04/19 07:52:14;;;;;;;30.35;22.67;;;10.40;99.90;;;9.72;100.00;101328.59;4137643;28;20026;-79
2023/04/19 07:54:16;;;;;;;31.13;23.08;;;10.40;99.90;;;9.81;100.00;101327.78;4137540;28;20030;-79
2023/04/19 07:56:18;;;;;;;32.22;23.35;;;10.50;99.90;;;9.89;100.00;101316.53;4137690;28;20030;-79
2023/04/19 07:58:19;;;;;;;27.58;21.23;;;10.50;99.90;;;10.05;100.00;101321.28;4129057;28;20098;-78
2023/04/19 08:00:20;;;;;;;27.08;20.38;;;10.70;99.90;;;10.17;100.00;101318.41;4121290;28;20042;-80
2023/04/19 08:02:21;;;;;;;27.38;21.58;;;10.80;99.90;;;10.30;100.00;101318.13;4120986;28;20082;-79
2023/04/19 08:04:22;;;;;;;29.80;21.92;;;10.90;99.90;;;10.42;100.00;101322.28;4109212;28;20026;-87
2023/04/19 08:06:23;;;;;;;31.42;21.23;;;11.00;99.90;;;10.50;100.00;101319.75;4128370;28;20082;-86
2023/04/19 08:08:24;;;;;;;28.95;21.23;;;11.10;99.90;;;10.54;100.00;101308.75;4136051;28;20514;-83
2023/04/19 08:10:27;;;;;;;28.88;21.48;;;11.20;99.90;;;10.69;100.00;101324.16;4121332;28;20019;-76
2023/04/19 08:12:28;;;;;;;25.90;19.88;;;11.20;99.90;;;10.75;100.00;101320.97;4136247;28;20410;-80
2023/04/19 08:14:29;;;;;;;26.15;19.60;;;11.30;99.90;;;10.85;100.00;101319.94;4136137;28;20022;-75
2023/04/19 08:16:30;;;;;;;27.67;20.85;;;11.40;99.90;;;10.97;100.00;101318.78;4130791;28;20034;-77
2023/04/19 08:18:32;;;;;;;24.50;19.13;;;11.50;99.90;;;11.03;100.00;101320.84;4133606;28;20034;-76